createdAt,value
2019-03-26T00:03:46.509Z,10.17
2019-03-26T00:08:49.821Z,9.00
2019-03-26T00:13:52.365Z,11.47
2019-03-26T00:18:56.447Z,12.27
2019-03-26T00:23:58.837Z,11.83
2019-03-26T00:29:01.433Z,11.53
2019-03-26T00:34:03.517Z,11.60
2019-03-26T00:39:05.953Z,11.70
2019-03-26T00:44:08.198Z,11.73
2019-03-26T00:49:10.489Z,11.50
2019-03-26T00:54:12.979Z,10.63
2019-03-26T00:59:15.470Z,10.40
2019-03-26T01:04:17.761Z,9.40
2019-03-26T01:09:20.049Z,10.00
2019-03-26T01:14:22.338Z,10.40
2019-03-26T01:19:24.627Z,9.87
2019-03-26T01:24:27.020Z,9.27
2019-03-26T01:29:29.307Z,10.43
2019-03-26T01:34:31.596Z,10.60
2019-03-26T01:39:33.883Z,9.23
2019-03-26T01:44:36.171Z,10.33
2019-03-26T01:49:38.564Z,9.50
2019-03-26T01:54:41.056Z,8.73
2019-03-26T01:59:43.385Z,9.60
2019-03-26T02:04:58.819Z,8.33
2019-03-26T02:09:49.663Z,11.20
2019-03-26T02:14:51.952Z,7.80
2019-03-26T02:19:54.240Z,8.90
2019-03-26T02:24:56.529Z,8.63
2019-03-26T02:29:58.818Z,7.17
2019-03-26T02:35:17.043Z,7.97
2019-03-26T02:40:05.446Z,7.00
2019-03-26T02:45:07.940Z,7.47
2019-03-26T02:50:10.431Z,8.07
2019-03-26T02:55:12.820Z,7.07
2019-03-26T03:00:15.215Z,7.60
2019-03-26T03:05:33.807Z,8.63
2019-03-26T03:10:21.324Z,8.13
2019-03-26T03:15:23.560Z,8.10
2019-03-26T03:20:25.903Z,7.53
2019-03-26T03:25:28.196Z,8.93
2019-03-26T03:30:32.330Z,9.10
2019-03-26T03:35:50.783Z,8.93
2019-03-26T03:40:38.643Z,9.83
2019-03-26T03:45:40.826Z,9.33
2019-03-26T03:50:43.870Z,8.53
2019-03-26T03:55:47.145Z,8.53
2019-03-26T04:00:51.348Z,9.23
2019-03-26T04:06:08.251Z,8.23
2019-03-26T04:10:57.390Z,8.97
2019-03-26T04:15:59.576Z,9.77
2019-03-26T04:21:01.764Z,10.53
2019-03-26T04:26:03.948Z,10.60
2019-03-26T04:31:06.135Z,10.77
2019-03-26T04:36:24.113Z,11.43
2019-03-26T04:41:12.250Z,15.13
2019-03-26T04:46:14.538Z,12.87
2019-03-26T04:51:19.999Z,11.63
2019-03-26T04:56:22.287Z,12.57
2019-03-26T05:01:24.474Z,12.43
2019-03-26T05:06:37.460Z,11.70
2019-03-26T05:11:30.590Z,12.97
2019-03-26T05:16:32.778Z,10.53
2019-03-26T05:21:35.063Z,11.50
2019-03-26T05:26:37.249Z,12.07
2019-03-26T05:31:39.435Z,12.37
2019-03-26T05:36:51.113Z,10.57
2019-03-26T05:41:45.652Z,12.13
2019-03-26T05:46:47.838Z,13.07
2019-03-26T05:51:50.023Z,12.40
2019-03-26T05:56:52.210Z,12.27
2019-03-26T06:01:54.498Z,10.93
2019-03-26T06:07:04.720Z,11.43
2019-03-26T06:12:00.612Z,10.23
2019-03-26T06:17:02.797Z,12.70
2019-03-26T06:22:04.992Z,10.93
2019-03-26T06:27:07.169Z,10.73
2019-03-26T06:32:10.692Z,10.33
2019-03-26T06:37:17.758Z,10.43
2019-03-26T06:42:16.801Z,9.17
2019-03-26T06:47:18.988Z,10.50
2019-03-26T06:52:21.481Z,11.27
2019-03-26T06:57:35.571Z,11.90
2019-03-26T07:02:35.077Z,12.30
2019-03-26T07:07:38.279Z,14.90
2019-03-26T07:12:40.568Z,16.53
2019-03-26T07:17:42.755Z,15.20
2019-03-26T07:22:52.813Z,14.67
2019-03-26T07:28:00.105Z,12.37
2019-03-26T07:33:02.218Z,11.87
2019-03-26T07:38:04.287Z,11.07
2019-03-26T07:43:06.369Z,12.43
2019-03-26T07:48:09.704Z,10.33
2019-03-26T07:53:11.881Z,8.87
2019-03-26T07:58:14.091Z,8.47
2019-03-26T08:03:16.256Z,7.37
2019-03-26T08:08:18.439Z,8.77
2019-03-26T08:13:20.625Z,8.57
2019-03-26T08:18:22.814Z,6.53
2019-03-26T08:23:24.999Z,9.30
2019-03-26T08:28:27.186Z,8.43
2019-03-26T08:33:29.372Z,7.73
2019-03-26T08:38:33.502Z,6.83
2019-03-26T08:43:35.493Z,7.33
2019-03-26T08:48:37.694Z,7.07
2019-03-26T08:53:39.856Z,6.20
2019-03-26T08:58:42.146Z,7.53
2019-03-26T09:03:44.238Z,7.87
2019-03-26T09:08:46.326Z,3.53
2019-03-26T09:13:48.382Z,7.10
2019-03-26T09:18:50.474Z,3.90
2019-03-26T09:23:52.666Z,6.77
2019-03-26T09:28:54.961Z,9.70
2019-03-26T09:33:57.144Z,4.70
2019-03-26T09:38:59.328Z,7.80
2019-03-26T09:44:01.515Z,10.53
2019-03-26T09:49:03.802Z,10.67
2019-03-26T09:54:06.000Z,9.27
2019-03-26T09:59:08.278Z,4.87
2019-03-26T10:04:10.567Z,10.33
2019-03-26T10:09:12.753Z,5.17
2019-03-26T10:14:14.939Z,7.70
2019-03-26T10:19:17.235Z,7.80
2019-03-26T10:24:19.519Z,8.10
2019-03-26T10:29:30.046Z,11.07
2019-03-26T10:34:25.629Z,9.87
2019-03-26T10:39:27.815Z,5.53
2019-03-26T10:44:29.949Z,11.43
2019-03-26T10:49:32.189Z,10.40
2019-03-26T10:54:34.284Z,5.90
2019-03-26T10:59:36.277Z,8.47
2019-03-26T11:04:38.259Z,5.97
2019-03-26T11:09:40.337Z,7.57
2019-03-26T11:14:42.295Z,4.93
2019-03-26T11:19:46.383Z,5.97
2019-03-26T11:24:48.077Z,6.60
2019-03-26T11:29:50.105Z,5.53
2019-03-26T11:34:52.057Z,5.83
2019-03-26T11:39:54.096Z,3.57
2019-03-26T11:44:59.130Z,4.33
2019-03-26T11:49:59.909Z,5.83
2019-03-26T11:55:01.901Z,3.90
2019-03-26T12:00:05.757Z,7.53
2019-03-26T12:05:08.071Z,8.67
2019-03-26T12:10:11.118Z,4.50
2019-03-26T12:15:13.118Z,4.77
2019-03-26T12:20:15.441Z,7.67
2019-03-26T12:25:17.542Z,7.07
2019-03-26T12:30:32.469Z,8.87
2019-03-26T12:35:34.577Z,7.93
2019-03-26T12:40:36.661Z,7.10
2019-03-26T12:45:38.660Z,6.83
2019-03-26T12:50:40.749Z,6.33
2019-03-26T12:55:42.849Z,5.23
2019-03-26T13:00:46.797Z,5.30
2019-03-26T13:05:48.805Z,3.30
2019-03-26T13:10:53.809Z,4.27
2019-03-26T13:15:54.685Z,2.43
2019-03-26T13:20:56.683Z,2.83
2019-03-26T13:25:58.757Z,2.40
2019-03-26T13:31:00.759Z,3.73
2019-03-26T13:36:02.921Z,2.50
2019-03-26T13:41:04.915Z,2.10
2019-03-26T13:46:07.103Z,2.57
2019-03-26T13:51:09.070Z,3.80
2019-03-26T13:56:11.253Z,2.37
2019-03-26T14:01:13.271Z,4.13
2019-03-26T14:06:15.323Z,2.40
2019-03-26T14:11:17.313Z,4.80
2019-03-26T14:16:19.390Z,3.30
2019-03-26T14:21:21.385Z,3.27
2019-03-26T14:26:23.452Z,1.17
2019-03-26T14:31:25.437Z,4.83
2019-03-26T14:36:27.509Z,5.50
2019-03-26T14:41:29.600Z,5.10
2019-03-26T14:46:31.777Z,2.57
2019-03-26T14:51:33.969Z,5.37
2019-03-26T14:56:36.157Z,6.53
2019-03-26T15:01:38.173Z,2.07
2019-03-26T15:06:40.321Z,1.87
2019-03-26T15:11:43.427Z,1.10
2019-03-26T15:16:45.755Z,1.23
2019-03-26T15:21:47.737Z,1.50
2019-03-26T15:26:49.790Z,1.13
2019-03-26T15:31:52.981Z,1.50
2019-03-26T15:36:55.082Z,1.30
2019-03-26T15:41:58.581Z,1.40
2019-03-26T15:47:00.681Z,1.53
2019-03-26T15:52:04.043Z,1.50
2019-03-26T15:57:06.089Z,1.20
2019-03-26T16:02:08.101Z,1.20
2019-03-26T16:07:10.149Z,1.87
2019-03-26T16:12:12.160Z,2.20
2019-03-26T16:17:14.209Z,2.60
2019-03-26T16:22:17.827Z,2.27
2019-03-26T16:27:20.021Z,2.47
2019-03-26T16:32:22.016Z,2.30
2019-03-26T16:37:24.069Z,2.60
2019-03-26T16:42:26.061Z,2.60
2019-03-26T16:47:28.353Z,3.07
2019-03-26T16:52:30.338Z,2.77
2019-03-26T16:57:32.354Z,2.90
2019-03-26T17:02:34.421Z,2.90
2019-03-26T17:07:36.637Z,3.87
2019-03-26T17:12:38.597Z,3.77
2019-03-26T17:17:40.624Z,2.90
2019-03-26T17:22:42.642Z,3.30
2019-03-26T17:27:44.625Z,3.23
2019-03-26T17:32:46.701Z,3.17
2019-03-26T17:37:58.954Z,3.93
2019-03-26T17:42:52.629Z,3.53
2019-03-26T17:47:54.692Z,3.40
2019-03-26T17:52:56.766Z,3.00
2019-03-26T17:57:58.761Z,3.57
2019-03-26T18:03:00.840Z,3.47
2019-03-26T18:08:02.919Z,3.67
2019-03-26T18:13:04.992Z,2.97
2019-03-26T18:18:07.034Z,3.00
2019-03-26T18:23:09.096Z,2.70
2019-03-26T18:28:11.081Z,2.10
2019-03-26T18:33:14.228Z,3.27
2019-03-26T18:38:16.208Z,2.80
2019-03-26T18:43:18.276Z,3.17
2019-03-26T18:48:20.313Z,2.83
2019-03-26T18:53:22.388Z,3.20
2019-03-26T18:58:24.534Z,3.33
2019-03-26T19:03:26.560Z,3.40
2019-03-26T19:08:28.570Z,2.93
2019-03-26T19:13:31.491Z,3.97
2019-03-26T19:18:33.482Z,3.30
2019-03-26T19:23:35.522Z,2.30
2019-03-26T19:28:37.614Z,3.43
2019-03-26T19:33:39.680Z,3.23
2019-03-26T19:38:41.665Z,3.27
2019-03-26T19:43:43.785Z,2.90
2019-03-26T19:48:45.777Z,1.83
2019-03-26T19:53:47.819Z,2.60
2019-03-26T19:58:49.823Z,2.80
2019-03-26T20:03:51.878Z,2.90
2019-03-26T20:08:53.961Z,2.93
2019-03-26T20:13:56.050Z,3.07
2019-03-26T20:18:58.145Z,3.40
2019-03-26T20:24:00.141Z,3.00
2019-03-26T20:29:02.121Z,2.80
2019-03-26T20:34:04.109Z,2.30
2019-03-26T20:39:06.372Z,2.60
2019-03-26T20:44:08.381Z,1.60
2019-03-26T20:49:10.423Z,2.40
2019-03-26T20:54:12.413Z,2.43
2019-03-26T20:59:14.590Z,2.27
2019-03-26T21:04:16.609Z,2.50
2019-03-26T21:09:18.661Z,2.80
2019-03-26T21:14:20.641Z,3.07
2019-03-26T21:19:22.717Z,3.03
2019-03-26T21:24:24.701Z,2.57
2019-03-26T21:29:26.782Z,2.70
2019-03-26T21:34:30.738Z,2.60
2019-03-26T21:39:32.562Z,2.23
2019-03-26T21:44:34.785Z,2.70
2019-03-26T21:49:36.857Z,2.70
2019-03-26T21:54:38.863Z,3.53
2019-03-26T21:59:40.944Z,3.30
2019-03-26T22:04:42.953Z,3.77
2019-03-26T22:09:45.001Z,3.80
2019-03-26T22:14:46.989Z,4.77
2019-03-26T22:19:49.058Z,4.37
2019-03-26T22:24:51.169Z,4.60
2019-03-26T22:29:53.221Z,4.57
2019-03-26T22:34:55.229Z,4.20
2019-03-26T22:39:58.905Z,3.73
2019-03-26T22:45:00.982Z,3.30
2019-03-26T22:50:05.783Z,2.43
2019-03-26T22:55:12.072Z,3.10
2019-03-26T23:00:17.834Z,2.43
2019-03-26T23:05:23.130Z,2.80
2019-03-26T23:10:29.532Z,2.90
2019-03-26T23:15:34.408Z,3.20
2019-03-26T23:20:36.384Z,2.67
2019-03-26T23:25:38.374Z,3.57
2019-03-26T23:30:40.444Z,3.23
2019-03-26T23:35:42.438Z,2.70
2019-03-26T23:40:44.423Z,2.83
2019-03-26T23:45:46.424Z,2.50
2019-03-26T23:50:48.414Z,2.63
2019-03-26T23:55:50.458Z,3.57
